Justice — WDG2184 — position and weather

sailwx.info

Track history (hours):
 
Tides and Currents Weather Stations Pressure Air Temp Water Temp Dewpoint Dewpoint Depression Visibility Wind Speed Wind Dir Waves Ship Positions

Justice

Owner: Boston Towing & Transportation, Boston, MA. More information available from US FCC via Universal Licensing System and Coast Guard Vessel Documentation Center.

Last reported at 2014-Oct-31 17:09 UTC. Time now 2014-Nov-01 04:11 UTC.
Position N 41°28' W 070°58'.

Length 30 m; draft 5.8 m.

Type: Tug. MMSI: 367513010.

Date/timePositionNaut miles runAvg speedWind from/ knotsBaromVisibWave heightAir tempDewpointWater temp
2014-Oct-31 17:09N 41°28' W 070°58'4 7.1
2014-Oct-31 16:33N 41°25' W 071°03'17 0.5
2014-Oct-30 04:24N 41°34' W 070°44'10 9.4
2014-Oct-30 03:21N 41°29' W 070°55'7 8.6
2014-Oct-30 02:33N 41°26' W 071°03'4 3.4
2014-Oct-30 01:32N 41°28' W 070°59'7 6.4
2014-Oct-30 00:27N 41°31' W 070°51'17 3.2
2014-Oct-29 19:08N 41°45' W 070°37'35 2.0
2014-Oct-29 02:12N 42°18' W 070°47'6 9.0
2014-Oct-29 01:33N 42°15' W 070°40'10 9.7
2014-Oct-29 00:32N 42°06' W 070°35'10 9.9
2014-Oct-28 23:33N 41°57' W 070°30'1010.0
2014-Oct-28 22:33N 41°47' W 070°29'6 6.1
2014-Oct-28 21:33N 41°45' W 070°36'7 6.8
2014-Oct-28 20:33N 41°39' W 070°41'9 8.8
2014-Oct-28 19:33N 41°32' W 070°48'9 9.0
2014-Oct-28 18:34N 41°28' W 070°59'0 0.4
2014-Oct-28 17:33N 41°28' W 070°59'1010.1
2014-Oct-28 16:32N 41°33' W 070°46'10 9.5
2014-Oct-28 15:30N 41°41' W 070°40'4 3.6
2014-Oct-28 14:29N 41°44' W 070°37'0 0.0
2014-Oct-28 13:32N 41°44' W 070°37'0 0.0
2014-Oct-28 12:33N 41°44' W 070°37'0 0.0
2014-Oct-28 11:33N 41°44' W 070°37'0 0.0
2014-Oct-28 10:33N 41°44' W 070°37'0 0.0
2014-Oct-28 09:33N 41°44' W 070°37'0 0.0
2014-Oct-28 08:34N 41°44' W 070°37'0 0.0
2014-Oct-28 07:04N 41°44' W 070°37'2 1.1
2014-Oct-28 05:22N 41°45' W 070°35'8 8.1
2014-Oct-28 04:21N 41°38' W 070°42'6 8.2
2014-Oct-28 03:33N 41°33' W 070°46'9 8.8
2014-Oct-28 02:33N 41°28' W 070°56'5 4.7
2014-Oct-28 01:33N 41°26' W 071°02'5 4.9
2014-Oct-28 00:33N 41°29' W 070°56'5 0.4
2014-Oct-27 12:33N 41°26' W 071°02'28 0.7
2014-Oct-25 23:08N 41°45' W 070°35'15 9.3
2014-Oct-25 21:32N 41°33' W 070°46'9 9.3
2014-Oct-25 20:33N 41°28' W 070°57'2 2.1
2014-Oct-25 19:33N 41°27' W 070°59'9 8.9
2014-Oct-25 18:34N 41°32' W 070°49'20 9.6
2014-Oct-25 16:27N 41°46' W 070°30'4 4.9
2014-Oct-25 15:33N 41°45' W 070°36'12 8.2
2014-Oct-25 14:09N 41°35' W 070°43'5 8.9
2014-Oct-25 13:33N 41°31' W 070°49'9 9.2
2014-Oct-25 12:33N 41°27' W 070°60'5 5.2
2014-Oct-25 11:33N 41°30' W 070°54'10 9.7
2014-Oct-25 10:33N 41°36' W 070°44'10 9.5
2014-Oct-25 09:31N 41°44' W 070°37'  
2014-Oct-22 15:29N 41°26' W 071°02'1 0.6
2014-Oct-22 14:25N 41°26' W 071°01'4 4.1
2014-Oct-22 13:33N 41°28' W 070°58'  
Track history (hours):
 
Tides and Currents Weather Stations Pressure Air Temp Water Temp Dewpoint Dewpoint Depression Visibility Wind Speed Wind Dir Waves Ship Positions

Justice

Owner: Boston Towing & Transportation, Boston, MA. More information available from US FCC via Universal Licensing System and Coast Guard Vessel Documentation Center.

Last reported at 2014-Oct-31 17:09 UTC. Time now 2014-Nov-01 04:11 UTC.
Position N 41°28' W 070°58'.

Length 30 m; draft 5.8 m.

Type: Tug. MMSI: 367513010.

Date/timePositionNaut miles runAvg speedWind from/ knotsBaromVisibWave heightAir tempDewpointWater temp
2014-Oct-31 17:09N 41°28' W 070°58'4 7.1
2014-Oct-31 16:33N 41°25' W 071°03'17 0.5
2014-Oct-30 04:24N 41°34' W 070°44'10 9.4
2014-Oct-30 03:21N 41°29' W 070°55'7 8.6
2014-Oct-30 02:33N 41°26' W 071°03'4 3.4
2014-Oct-30 01:32N 41°28' W 070°59'7 6.4
2014-Oct-30 00:27N 41°31' W 070°51'17 3.2
2014-Oct-29 19:08N 41°45' W 070°37'35 2.0
2014-Oct-29 02:12N 42°18' W 070°47'6 9.0
2014-Oct-29 01:33N 42°15' W 070°40'10 9.7
2014-Oct-29 00:32N 42°06' W 070°35'10 9.9
2014-Oct-28 23:33N 41°57' W 070°30'1010.0
2014-Oct-28 22:33N 41°47' W 070°29'6 6.1
2014-Oct-28 21:33N 41°45' W 070°36'7 6.8
2014-Oct-28 20:33N 41°39' W 070°41'9 8.8
2014-Oct-28 19:33N 41°32' W 070°48'9 9.0
2014-Oct-28 18:34N 41°28' W 070°59'0 0.4
2014-Oct-28 17:33N 41°28' W 070°59'1010.1
2014-Oct-28 16:32N 41°33' W 070°46'10 9.5
2014-Oct-28 15:30N 41°41' W 070°40'4 3.6
2014-Oct-28 14:29N 41°44' W 070°37'0 0.0
2014-Oct-28 13:32N 41°44' W 070°37'0 0.0
2014-Oct-28 12:33N 41°44' W 070°37'0 0.0
2014-Oct-28 11:33N 41°44' W 070°37'0 0.0
2014-Oct-28 10:33N 41°44' W 070°37'0 0.0
2014-Oct-28 09:33N 41°44' W 070°37'0 0.0
2014-Oct-28 08:34N 41°44' W 070°37'0 0.0
2014-Oct-28 07:04N 41°44' W 070°37'2 1.1
2014-Oct-28 05:22N 41°45' W 070°35'8 8.1
2014-Oct-28 04:21N 41°38' W 070°42'6 8.2
2014-Oct-28 03:33N 41°33' W 070°46'9 8.8
2014-Oct-28 02:33N 41°28' W 070°56'5 4.7
2014-Oct-28 01:33N 41°26' W 071°02'5 4.9
2014-Oct-28 00:33N 41°29' W 070°56'5 0.4
2014-Oct-27 12:33N 41°26' W 071°02'28 0.7
2014-Oct-25 23:08N 41°45' W 070°35'15 9.3
2014-Oct-25 21:32N 41°33' W 070°46'9 9.3
2014-Oct-25 20:33N 41°28' W 070°57'2 2.1
2014-Oct-25 19:33N 41°27' W 070°59'9 8.9
2014-Oct-25 18:34N 41°32' W 070°49'20 9.6
2014-Oct-25 16:27N 41°46' W 070°30'4 4.9
2014-Oct-25 15:33N 41°45' W 070°36'12 8.2
2014-Oct-25 14:09N 41°35' W 070°43'5 8.9
2014-Oct-25 13:33N 41°31' W 070°49'9 9.2
2014-Oct-25 12:33N 41°27' W 070°60'5 5.2
2014-Oct-25 11:33N 41°30' W 070°54'10 9.7
2014-Oct-25 10:33N 41°36' W 070°44'10 9.5
2014-Oct-25 09:31N 41°44' W 070°37'  
2014-Oct-22 15:29N 41°26' W 071°02'1 0.6
2014-Oct-22 14:25N 41°26' W 071°01'4 4.1
2014-Oct-22 13:33N 41°28' W 070°58'  

Dump ship's entire track history